createdAt,value
2019-01-08T00:00:23.626Z,55.40
2019-01-08T00:01:23.608Z,80.80
2019-01-08T00:02:23.582Z,84.70
2019-01-08T00:03:23.559Z,94.30
2019-01-08T00:04:23.534Z,64.50
2019-01-08T00:05:23.512Z,85.90
2019-01-08T00:06:23.490Z,61.40
2019-01-08T00:07:23.470Z,69.50
2019-01-08T00:08:23.448Z,72.00
2019-01-08T00:09:23.423Z,74.90
2019-01-08T00:10:23.394Z,80.20
2019-01-08T00:11:23.380Z,68.80
2019-01-08T00:12:23.354Z,81.00
2019-01-08T00:13:23.329Z,70.40
2019-01-08T00:14:23.305Z,62.70
2019-01-08T00:15:23.291Z,59.20
2019-01-08T00:16:23.264Z,80.10
2019-01-08T00:17:23.237Z,63.90
2019-01-08T00:18:23.214Z,50.10
2019-01-08T00:19:23.195Z,61.30
2019-01-08T00:20:23.170Z,56.10
2019-01-08T00:21:23.145Z,65.10
2019-01-08T00:22:23.122Z,52.30
2019-01-08T00:23:23.102Z,71.30
2019-01-08T00:24:23.077Z,60.30
2019-01-08T00:25:23.054Z,54.40
2019-01-08T00:26:23.031Z,65.90
2019-01-08T00:27:23.009Z,53.60
2019-01-08T00:28:22.984Z,75.60
2019-01-08T00:29:22.961Z,56.10
2019-01-08T00:30:22.939Z,69.10
2019-01-08T00:31:22.915Z,46.00
2019-01-08T00:32:22.889Z,66.70
2019-01-08T00:33:22.870Z,60.10
2019-01-08T00:34:22.862Z,67.60
2019-01-08T00:35:22.826Z,50.00
2019-01-08T00:36:22.807Z,63.90
2019-01-08T00:37:22.775Z,54.30
2019-01-08T00:38:22.761Z,65.60
2019-01-08T00:39:22.730Z,66.20
2019-01-08T00:40:22.714Z,78.50
2019-01-08T00:41:22.685Z,56.30
2019-01-08T00:42:22.663Z,44.10
2019-01-08T00:43:22.643Z,54.60
2019-01-08T00:44:22.617Z,27.40
2019-01-08T00:45:22.594Z,53.80
2019-01-08T00:46:22.571Z,39.30
2019-01-08T00:47:22.549Z,44.50
2019-01-08T00:48:22.526Z,55.40
2019-01-08T00:49:22.582Z,41.20
2019-01-08T00:50:22.479Z,39.80
2019-01-08T00:51:22.459Z,40.00
2019-01-08T00:52:22.429Z,47.10
2019-01-08T00:53:22.415Z,32.40
2019-01-08T00:54:22.393Z,42.40
2019-01-08T00:55:22.363Z,43.90
2019-01-08T00:56:22.343Z,40.70
2019-01-08T00:57:22.313Z,41.80
2019-01-08T00:58:22.297Z,36.50
2019-01-08T00:59:22.273Z,38.60
2019-01-08T01:00:22.251Z,30.30
2019-01-08T01:01:22.229Z,41.00
2019-01-08T01:02:22.205Z,40.80
2019-01-08T01:03:22.185Z,44.50
2019-01-08T01:04:22.159Z,34.70
2019-01-08T01:05:22.137Z,42.60
2019-01-08T01:06:22.111Z,34.80
2019-01-08T01:07:22.089Z,40.30
2019-01-08T01:08:22.063Z,37.30
2019-01-08T01:09:22.046Z,46.10
2019-01-08T01:10:22.020Z,40.40
2019-01-08T01:11:22.003Z,47.00
2019-01-08T01:12:21.979Z,32.70
2019-01-08T01:13:21.949Z,30.50
2019-01-08T01:14:21.925Z,50.90
2019-01-08T01:15:21.910Z,41.00
2019-01-08T01:16:21.883Z,33.10
2019-01-08T01:17:21.859Z,42.50
2019-01-08T01:18:21.835Z,32.00
2019-01-08T01:19:21.819Z,39.00
2019-01-08T01:20:21.790Z,30.50
2019-01-08T01:21:21.767Z,29.00
2019-01-08T01:22:21.749Z,50.30
2019-01-08T01:23:21.726Z,37.30
2019-01-08T01:24:21.695Z,33.50
2019-01-08T01:25:21.680Z,35.20
2019-01-08T01:26:21.653Z,23.90
2019-01-08T01:27:21.629Z,34.30
2019-01-08T01:28:21.605Z,24.70
2019-01-08T01:29:21.583Z,27.40
2019-01-08T01:30:21.567Z,37.30
2019-01-08T01:31:21.545Z,35.40
2019-01-08T01:32:21.517Z,36.30
2019-01-08T01:33:21.494Z,34.20
2019-01-08T01:34:21.468Z,28.90
2019-01-08T01:35:21.452Z,30.80
2019-01-08T01:36:21.424Z,29.00
2019-01-08T01:37:21.401Z,26.70
2019-01-08T01:38:21.374Z,32.50
2019-01-08T01:39:21.357Z,25.80
2019-01-08T01:40:21.334Z,24.40
2019-01-08T01:41:21.310Z,31.20
2019-01-08T01:42:21.286Z,30.20
2019-01-08T01:43:21.264Z,28.10
2019-01-08T01:44:21.241Z,37.50
2019-01-08T01:45:21.220Z,40.10
2019-01-08T01:46:21.188Z,38.10
2019-01-08T01:47:21.172Z,34.10
2019-01-08T01:48:21.151Z,27.20
2019-01-08T01:49:21.126Z,25.70
2019-01-08T01:50:21.103Z,23.80
2019-01-08T01:51:21.079Z,28.40
2019-01-08T01:52:21.062Z,30.60
2019-01-08T01:53:21.034Z,19.60
2019-01-08T01:54:21.012Z,32.90
2019-01-08T01:55:20.986Z,28.80
2019-01-08T01:56:20.964Z,22.20
2019-01-08T01:57:20.941Z,29.80
2019-01-08T01:58:20.920Z,35.60
2019-01-08T01:59:20.896Z,27.40
2019-01-08T02:00:20.871Z,38.60
2019-01-08T02:01:20.847Z,41.50
2019-01-08T02:02:20.826Z,29.80
2019-01-08T02:03:20.801Z,24.20
2019-01-08T02:04:20.781Z,32.30
2019-01-08T02:05:20.760Z,31.20
2019-01-08T02:06:20.740Z,23.30
2019-01-08T02:07:20.713Z,34.40
2019-01-08T02:08:20.689Z,30.50
2019-01-08T02:09:20.666Z,21.50
2019-01-08T02:10:20.645Z,24.80
2019-01-08T02:11:20.618Z,24.70
2019-01-08T02:12:20.598Z,31.00
2019-01-08T02:13:20.576Z,23.00
2019-01-08T02:14:20.548Z,30.80
2019-01-08T02:15:20.528Z,41.60
2019-01-08T02:16:20.509Z,21.80
2019-01-08T02:17:20.480Z,23.60
2019-01-08T02:18:20.456Z,21.50
2019-01-08T02:19:20.440Z,23.60
2019-01-08T02:20:20.412Z,25.70
2019-01-08T02:21:20.389Z,32.00
2019-01-08T02:22:20.364Z,24.00
2019-01-08T02:23:20.344Z,31.90
2019-01-08T02:24:20.318Z,21.50
2019-01-08T02:25:20.298Z,25.10
2019-01-08T02:26:20.275Z,21.50
2019-01-08T02:27:20.258Z,32.90
2019-01-08T02:28:20.230Z,27.00
2019-01-08T02:29:20.204Z,17.50
2019-01-08T02:30:20.189Z,26.40
2019-01-08T02:31:20.158Z,33.40
2019-01-08T02:32:21.952Z,26.80
2019-01-08T02:33:20.131Z,32.60
2019-01-08T02:34:20.091Z,35.40
2019-01-08T02:35:20.071Z,39.20
2019-01-08T02:36:20.046Z,35.10
2019-01-08T02:37:20.022Z,23.40
2019-01-08T02:38:20.003Z,40.20
2019-01-08T02:39:19.977Z,33.40
2019-01-08T02:40:19.952Z,28.80
2019-01-08T02:41:20.183Z,33.30
2019-01-08T02:42:19.911Z,31.20
2019-01-08T02:43:19.886Z,35.90
2019-01-08T02:44:20.072Z,20.50
2019-01-08T02:45:19.838Z,33.10
2019-01-08T02:46:19.841Z,35.20
2019-01-08T02:47:19.792Z,43.00
2019-01-08T02:48:19.782Z,35.10
2019-01-08T02:49:19.748Z,26.60
2019-01-08T02:50:19.722Z,38.50
2019-01-08T02:51:19.701Z,42.50
2019-01-08T02:52:19.676Z,39.50
2019-01-08T02:53:19.654Z,42.50
2019-01-08T02:54:19.700Z,24.00
2019-01-08T02:55:19.609Z,39.50
2019-01-08T02:56:19.587Z,46.00
2019-01-08T02:57:19.568Z,43.70
2019-01-08T02:58:19.548Z,44.00
2019-01-08T02:59:25.100Z,36.90
2019-01-08T03:00:19.492Z,41.30
2019-01-08T03:01:19.470Z,45.70
2019-01-08T03:02:19.451Z,55.00
2019-01-08T03:03:19.429Z,39.60
2019-01-08T03:04:19.404Z,39.70
2019-01-08T03:05:19.379Z,32.50
2019-01-08T03:06:19.360Z,50.50
2019-01-08T03:07:19.338Z,43.90
2019-01-08T03:08:19.311Z,50.20
2019-01-08T03:09:19.289Z,37.10
2019-01-08T03:10:19.266Z,47.10
2019-01-08T03:11:19.242Z,49.30
2019-01-08T03:12:19.223Z,64.70
2019-01-08T03:13:19.197Z,43.90
2019-01-08T03:14:19.177Z,33.70
2019-01-08T03:15:19.158Z,42.00
2019-01-08T03:16:19.131Z,44.10
2019-01-08T03:17:19.110Z,46.40
2019-01-08T03:18:19.092Z,41.90
2019-01-08T03:19:19.065Z,52.40
2019-01-08T03:20:19.039Z,41.00
2019-01-08T03:21:19.019Z,43.90
2019-01-08T03:22:18.991Z,37.90
2019-01-08T03:23:18.973Z,46.70
2019-01-08T03:24:18.951Z,45.60
2019-01-08T03:25:18.931Z,36.30
2019-01-08T03:26:18.901Z,41.70
2019-01-08T03:27:18.877Z,54.10
2019-01-08T03:28:18.855Z,43.10
2019-01-08T03:29:18.833Z,39.00
2019-01-08T03:30:18.814Z,37.20
2019-01-08T03:31:18.792Z,30.30
2019-01-08T03:32:18.768Z,48.20
2019-01-08T03:33:18.743Z,36.10
2019-01-08T03:34:18.726Z,33.20
2019-01-08T03:35:18.697Z,43.20
2019-01-08T03:36:18.671Z,36.90
2019-01-08T03:37:18.650Z,38.40
2019-01-08T03:38:18.631Z,37.00
2019-01-08T03:39:18.609Z,29.80
2019-01-08T03:40:18.581Z,33.60
2019-01-08T03:41:18.559Z,37.30
2019-01-08T03:42:18.539Z,30.10
2019-01-08T03:43:18.513Z,26.60
2019-01-08T03:44:18.493Z,37.00
2019-01-08T03:45:18.471Z,35.90
2019-01-08T03:46:18.447Z,30.90
2019-01-08T03:47:18.424Z,24.00
2019-01-08T03:48:18.402Z,36.30
2019-01-08T03:49:18.377Z,25.80
2019-01-08T03:50:18.358Z,35.20
2019-01-08T03:51:18.336Z,38.20
2019-01-08T03:52:18.310Z,41.80
2019-01-08T03:53:18.287Z,28.90
2019-01-08T03:54:18.298Z,26.20
2019-01-08T03:55:18.243Z,36.90
2019-01-08T03:56:18.217Z,35.30
2019-01-08T03:57:18.199Z,19.40
2019-01-08T03:58:18.175Z,41.80
2019-01-08T03:59:18.152Z,29.80
2019-01-08T04:00:18.128Z,34.40
2019-01-08T04:01:18.104Z,29.80
2019-01-08T04:02:18.078Z,31.90
2019-01-08T04:03:18.062Z,22.90
2019-01-08T04:04:18.042Z,31.50
2019-01-08T04:05:18.017Z,23.00
2019-01-08T04:06:17.991Z,34.30
2019-01-08T04:07:17.972Z,40.60
2019-01-08T04:08:17.952Z,21.50
2019-01-08T04:09:17.930Z,32.00
2019-01-08T04:10:17.909Z,36.80
2019-01-08T04:11:17.879Z,29.90
2019-01-08T04:12:17.856Z,24.60
2019-01-08T04:13:17.834Z,33.10
2019-01-08T04:14:17.812Z,36.60
2019-01-08T04:15:17.790Z,31.00
2019-01-08T04:16:17.766Z,28.00
2019-01-08T04:17:17.744Z,34.70
2019-01-08T04:18:17.720Z,30.60
2019-01-08T04:19:17.697Z,29.40
2019-01-08T04:20:17.673Z,30.70
2019-01-08T04:21:17.650Z,35.20
2019-01-08T04:22:17.632Z,26.70
2019-01-08T04:23:17.618Z,31.80
2019-01-08T04:24:17.580Z,24.90
2019-01-08T04:25:17.568Z,23.40
2019-01-08T04:26:17.541Z,34.30
2019-01-08T04:27:17.519Z,29.90
2019-01-08T04:28:17.504Z,24.70
2019-01-08T04:29:17.474Z,27.30
2019-01-08T04:30:17.450Z,23.70
2019-01-08T04:31:17.426Z,23.70
2019-01-08T04:32:17.400Z,25.50
2019-01-08T04:33:17.382Z,21.30
2019-01-08T04:34:17.356Z,29.20
2019-01-08T04:35:17.336Z,29.40
2019-01-08T04:36:17.310Z,26.90
2019-01-08T04:37:17.288Z,24.30
2019-01-08T04:38:17.268Z,26.20
2019-01-08T04:39:17.240Z,29.60
2019-01-08T04:40:17.220Z,21.50
2019-01-08T04:41:17.198Z,22.30
2019-01-08T04:42:17.230Z,27.30
2019-01-08T04:43:17.153Z,19.80
2019-01-08T04:44:17.130Z,27.40
2019-01-08T04:45:17.110Z,17.70
2019-01-08T04:46:17.088Z,31.60
2019-01-08T04:47:17.060Z,28.40
2019-01-08T04:48:17.042Z,27.10
2019-01-08T04:49:17.014Z,29.00
2019-01-08T04:50:16.996Z,24.80
2019-01-08T04:51:16.977Z,32.00
2019-01-08T04:52:16.946Z,21.20
2019-01-08T04:53:16.931Z,28.50
2019-01-08T04:54:16.900Z,20.50
2019-01-08T04:55:16.881Z,32.00
2019-01-08T04:56:16.856Z,30.50
2019-01-08T04:57:16.836Z,26.70
2019-01-08T04:58:16.819Z,22.90
2019-01-08T04:59:16.792Z,24.60
2019-01-08T05:00:16.768Z,29.80
2019-01-08T05:01:16.745Z,25.40
2019-01-08T05:02:16.720Z,20.30
2019-01-08T05:03:16.702Z,21.90
2019-01-08T05:04:16.676Z,25.60
2019-01-08T05:05:16.657Z,21.90
2019-01-08T05:06:16.632Z,26.30
2019-01-08T05:07:16.684Z,19.80
2019-01-08T05:08:16.686Z,21.00
2019-01-08T05:09:16.566Z,22.40
2019-01-08T05:10:16.540Z,21.70
2019-01-08T05:11:16.516Z,22.00
2019-01-08T05:12:16.497Z,22.40
2019-01-08T05:13:16.472Z,17.00
2019-01-08T05:14:16.450Z,18.70
2019-01-08T05:15:16.428Z,20.40
2019-01-08T05:16:16.404Z,22.80
2019-01-08T05:17:16.394Z,26.10
2019-01-08T05:18:16.362Z,20.80
2019-01-08T05:19:16.341Z,20.80
2019-01-08T05:20:16.309Z,20.20
2019-01-08T05:21:16.295Z,18.50
2019-01-08T05:22:16.268Z,14.80
2019-01-08T05:23:16.246Z,15.60
2019-01-08T05:24:16.226Z,14.70
2019-01-08T05:25:16.200Z,22.60
2019-01-08T05:26:16.179Z,16.30
2019-01-08T05:27:16.165Z,18.20
2019-01-08T05:28:16.131Z,22.20
2019-01-08T05:29:16.202Z,19.60
2019-01-08T05:30:16.089Z,16.50
2019-01-08T05:31:16.060Z,19.40
2019-01-08T05:32:16.091Z,13.20
2019-01-08T05:33:16.016Z,17.60
2019-01-08T05:34:16.001Z,27.60
2019-01-08T05:35:15.972Z,17.60
2019-01-08T05:36:15.949Z,16.10
2019-01-08T05:37:15.931Z,18.30
2019-01-08T05:38:15.908Z,19.90
2019-01-08T05:39:15.881Z,14.70
2019-01-08T05:40:15.863Z,21.20
2019-01-08T05:41:15.837Z,19.90
2019-01-08T05:42:15.886Z,26.70
2019-01-08T05:43:15.790Z,25.90
2019-01-08T05:44:15.764Z,21.20
2019-01-08T05:45:15.740Z,22.70
2019-01-08T05:46:15.716Z,15.70
2019-01-08T05:47:16.569Z,14.00
2019-01-08T05:48:15.672Z,17.70
2019-01-08T05:49:15.651Z,16.10
2019-01-08T05:50:15.629Z,17.70
2019-01-08T05:51:15.603Z,17.40
2019-01-08T05:52:15.587Z,17.00
2019-01-08T05:53:15.560Z,15.70
2019-01-08T05:54:15.537Z,19.40
2019-01-08T05:55:15.512Z,20.20
2019-01-08T05:56:15.492Z,26.30
2019-01-08T05:57:15.468Z,11.80
2019-01-08T05:58:15.451Z,24.20
2019-01-08T05:59:15.421Z,20.10
2019-01-08T06:00:16.592Z,18.20
2019-01-08T06:01:15.376Z,18.50
2019-01-08T06:02:15.351Z,19.70
2019-01-08T06:03:15.334Z,15.70
2019-01-08T06:04:15.312Z,11.90
2019-01-08T06:05:15.285Z,17.90
2019-01-08T06:06:15.263Z,21.30
2019-01-08T06:07:15.241Z,17.40
2019-01-08T06:08:15.215Z,17.60
2019-01-08T06:09:15.191Z,18.40
2019-01-08T06:10:15.173Z,21.50
2019-01-08T06:11:15.147Z,14.60
2019-01-08T06:12:15.125Z,16.50
2019-01-08T06:13:15.101Z,15.90
2019-01-08T06:14:15.090Z,14.70
2019-01-08T06:15:15.058Z,18.60
2019-01-08T06:16:15.034Z,13.10
2019-01-08T06:17:15.011Z,12.40
2019-01-08T06:18:14.987Z,17.80
2019-01-08T06:19:14.966Z,15.00
2019-01-08T06:20:14.943Z,15.20
2019-01-08T06:21:14.920Z,12.00
2019-01-08T06:22:14.903Z,10.60
2019-01-08T06:23:14.873Z,16.60
2019-01-08T06:24:14.859Z,15.80
2019-01-08T06:25:14.834Z,12.30
2019-01-08T06:26:14.851Z,16.80
2019-01-08T06:27:14.785Z,16.40
2019-01-08T06:28:14.762Z,13.00
2019-01-08T06:29:14.737Z,16.60
2019-01-08T06:30:14.717Z,21.40
2019-01-08T06:31:14.689Z,16.30
2019-01-08T06:32:14.667Z,16.30
2019-01-08T06:33:14.650Z,16.90
2019-01-08T06:34:14.628Z,13.60
2019-01-08T06:35:14.599Z,17.00
2019-01-08T06:36:14.574Z,14.00
2019-01-08T06:37:14.556Z,16.30
2019-01-08T06:38:15.404Z,19.00
2019-01-08T06:39:14.507Z,17.10
2019-01-08T06:40:14.487Z,17.10
2019-01-08T06:41:14.465Z,19.90
2019-01-08T06:42:14.441Z,18.30
2019-01-08T06:43:14.414Z,17.10
2019-01-08T06:44:14.393Z,18.40
2019-01-08T06:45:14.375Z,19.40
2019-01-08T06:46:14.349Z,14.80
2019-01-08T06:47:14.330Z,15.10
2019-01-08T06:48:14.307Z,18.50
2019-01-08T06:49:14.282Z,18.60
2019-01-08T06:50:14.254Z,21.50
2019-01-08T06:51:14.234Z,25.20
2019-01-08T06:52:14.209Z,19.60
2019-01-08T06:53:14.191Z,20.40
2019-01-08T06:54:14.174Z,18.30
2019-01-08T06:55:14.150Z,14.60
2019-01-08T06:56:14.742Z,16.40
2019-01-08T06:57:14.104Z,14.60
2019-01-08T06:58:14.079Z,16.90
2019-01-08T06:59:14.053Z,18.40
2019-01-08T07:00:14.035Z,16.70
2019-01-08T07:01:14.006Z,16.60
2019-01-08T07:02:13.983Z,13.50
2019-01-08T07:03:13.965Z,16.40
2019-01-08T07:04:13.940Z,12.60
2019-01-08T07:05:13.918Z,13.70
2019-01-08T07:06:13.891Z,15.10
2019-01-08T07:07:13.871Z,12.80
2019-01-08T07:08:13.850Z,13.20
2019-01-08T07:09:13.824Z,13.50
2019-01-08T07:10:13.802Z,13.70
2019-01-08T07:11:13.781Z,14.70
2019-01-08T07:12:13.754Z,17.50
2019-01-08T07:13:13.736Z,12.90
2019-01-08T07:14:13.709Z,19.20
2019-01-08T07:15:13.684Z,15.60
2019-01-08T07:16:13.661Z,14.70
2019-01-08T07:17:13.644Z,12.40
2019-01-08T07:18:13.616Z,13.90
2019-01-08T07:19:13.596Z,19.70
2019-01-08T07:20:13.587Z,10.80
2019-01-08T07:21:13.554Z,18.40
2019-01-08T07:22:13.524Z,15.30
2019-01-08T07:23:13.517Z,11.90
2019-01-08T07:24:13.484Z,11.20
2019-01-08T07:25:13.462Z,10.40
2019-01-08T07:26:13.435Z,13.30
2019-01-08T07:27:16.579Z,13.20
2019-01-08T07:28:13.405Z,14.60
2019-01-08T07:29:13.369Z,14.80
2019-01-08T07:30:13.344Z,16.60
2019-01-08T07:31:13.324Z,14.60
2019-01-08T07:32:13.303Z,15.80
2019-01-08T07:33:13.276Z,15.10
2019-01-08T07:34:13.254Z,14.80
2019-01-08T07:35:13.228Z,16.40
2019-01-08T07:36:13.205Z,17.50
2019-01-08T07:37:13.189Z,14.70
2019-01-08T07:38:13.166Z,16.30
2019-01-08T07:39:13.140Z,16.00
2019-01-08T07:40:13.116Z,15.50
2019-01-08T07:41:13.094Z,12.90
2019-01-08T07:42:13.072Z,16.40
2019-01-08T07:43:13.053Z,17.70
2019-01-08T07:44:13.024Z,15.60
2019-01-08T07:45:13.015Z,12.40
2019-01-08T07:46:12.978Z,18.40
2019-01-08T07:47:12.959Z,15.00
2019-01-08T07:48:12.938Z,13.50
2019-01-08T07:49:12.910Z,14.20
2019-01-08T07:50:12.888Z,17.20
2019-01-08T07:51:12.864Z,15.30
2019-01-08T07:52:12.845Z,13.80
2019-01-08T07:53:12.816Z,15.10
2019-01-08T07:54:12.800Z,16.40
2019-01-08T07:55:12.774Z,14.80
2019-01-08T07:56:12.754Z,13.40
2019-01-08T07:57:12.728Z,13.60
2019-01-08T07:58:12.701Z,13.30
2019-01-08T07:59:12.684Z,16.20
2019-01-08T08:00:12.663Z,12.40
2019-01-08T08:01:12.636Z,13.90
2019-01-08T08:02:12.616Z,13.60
2019-01-08T08:03:12.594Z,11.60
2019-01-08T08:04:12.582Z,11.40
2019-01-08T08:05:12.549Z,12.30
2019-01-08T08:06:12.527Z,12.80
2019-01-08T08:07:12.498Z,14.20
2019-01-08T08:08:12.478Z,12.10
2019-01-08T08:09:12.456Z,11.80
2019-01-08T08:10:12.435Z,13.70
2019-01-08T08:11:12.408Z,9.80
2019-01-08T08:12:12.384Z,10.30
2019-01-08T08:13:12.368Z,12.70
2019-01-08T08:14:12.340Z,15.20
2019-01-08T08:15:12.316Z,13.10
2019-01-08T08:16:12.292Z,13.10
2019-01-08T08:17:12.277Z,12.70
2019-01-08T08:18:12.255Z,12.80
2019-01-08T08:19:12.225Z,10.80
2019-01-08T08:20:12.206Z,12.20
2019-01-08T08:21:12.182Z,13.30
2019-01-08T08:22:12.160Z,14.40
2019-01-08T08:23:12.138Z,14.00
2019-01-08T08:24:12.113Z,13.30
2019-01-08T08:25:12.088Z,12.30
2019-01-08T08:26:12.066Z,13.80
2019-01-08T08:27:12.054Z,14.30
2019-01-08T08:28:12.025Z,16.60
2019-01-08T08:29:11.997Z,14.40
2019-01-08T08:30:11.980Z,16.80
2019-01-08T08:31:11.958Z,13.70
2019-01-08T08:32:11.933Z,13.90
2019-01-08T08:33:11.908Z,16.60
2019-01-08T08:34:11.885Z,13.40
2019-01-08T08:35:11.861Z,13.80
2019-01-08T08:36:11.839Z,12.60
2019-01-08T08:37:12.069Z,14.00
2019-01-08T08:38:11.792Z,11.70
2019-01-08T08:39:11.770Z,14.40
2019-01-08T08:40:11.747Z,13.90
2019-01-08T08:41:11.723Z,11.10
2019-01-08T08:42:11.703Z,13.20
2019-01-08T08:43:11.678Z,13.00
2019-01-08T08:44:11.655Z,14.00
2019-01-08T08:45:11.631Z,13.80
2019-01-08T08:46:11.610Z,13.20
2019-01-08T08:47:11.585Z,12.90
2019-01-08T08:48:11.566Z,11.50
2019-01-08T08:49:11.545Z,12.00
2019-01-08T08:50:11.520Z,12.50
2019-01-08T08:51:11.497Z,10.00
2019-01-08T08:52:11.474Z,14.70
2019-01-08T08:53:11.453Z,16.00
2019-01-08T08:54:11.427Z,10.90
2019-01-08T08:55:11.406Z,11.50
2019-01-08T08:56:11.390Z,17.50
2019-01-08T08:57:11.359Z,11.70
2019-01-08T08:58:11.333Z,10.90
2019-01-08T08:59:11.315Z,12.60
2019-01-08T09:00:11.289Z,13.10
2019-01-08T09:01:11.269Z,11.10
2019-01-08T09:02:11.246Z,9.90
2019-01-08T09:03:11.223Z,14.90
2019-01-08T09:04:11.200Z,14.50
2019-01-08T09:05:11.177Z,12.40
2019-01-08T09:06:11.151Z,12.80
2019-01-08T09:07:11.139Z,12.30
2019-01-08T09:08:11.109Z,15.70
2019-01-08T09:09:11.082Z,14.60
2019-01-08T09:10:11.065Z,15.10
2019-01-08T09:11:11.040Z,13.80
2019-01-08T09:12:11.022Z,14.60
2019-01-08T09:13:11.003Z,17.00
2019-01-08T09:14:10.974Z,13.40
2019-01-08T09:15:10.948Z,13.00
2019-01-08T09:16:10.929Z,13.00
2019-01-08T09:17:10.905Z,12.70
2019-01-08T09:18:10.883Z,11.80
2019-01-08T09:19:10.861Z,12.00
2019-01-08T09:20:10.835Z,12.30
2019-01-08T09:21:10.809Z,13.40
2019-01-08T09:22:10.790Z,12.90
2019-01-08T09:23:10.762Z,15.30
2019-01-08T09:24:10.749Z,10.10
2019-01-08T09:25:10.731Z,15.20
2019-01-08T09:26:10.700Z,13.70
2019-01-08T09:27:10.677Z,13.40
2019-01-08T09:28:10.650Z,13.80
2019-01-08T09:29:10.625Z,10.40
2019-01-08T09:30:10.611Z,12.00
2019-01-08T09:31:15.261Z,11.50
2019-01-08T09:32:10.563Z,9.60
2019-01-08T09:33:10.538Z,11.70
2019-01-08T09:34:10.515Z,10.70
2019-01-08T09:35:10.488Z,14.40
2019-01-08T09:36:10.467Z,12.90
2019-01-08T09:37:10.445Z,16.10
2019-01-08T09:38:10.422Z,10.20
2019-01-08T09:39:10.399Z,13.70
2019-01-08T09:40:10.379Z,15.20
2019-01-08T09:41:10.357Z,13.90
2019-01-08T09:42:10.333Z,13.10
2019-01-08T09:43:10.309Z,11.50
2019-01-08T09:44:10.297Z,15.10
2019-01-08T09:45:10.260Z,16.60
2019-01-08T09:46:10.240Z,18.70
2019-01-08T09:47:10.219Z,14.20
2019-01-08T09:48:10.196Z,17.10
2019-01-08T09:49:10.170Z,18.90
2019-01-08T09:50:10.146Z,14.40
2019-01-08T09:51:10.127Z,11.50
2019-01-08T09:52:10.111Z,14.90
2019-01-08T09:53:10.086Z,12.90
2019-01-08T09:54:10.061Z,14.20
2019-01-08T09:55:10.049Z,18.20
2019-01-08T09:56:10.010Z,12.00
2019-01-08T09:57:09.988Z,13.90
2019-01-08T09:58:09.962Z,14.00
2019-01-08T09:59:09.946Z,14.80
2019-01-08T10:00:09.919Z,11.60
2019-01-08T10:01:09.925Z,13.60
2019-01-08T10:02:09.876Z,11.30
2019-01-08T10:03:09.850Z,12.90
2019-01-08T10:04:09.828Z,12.50
2019-01-08T10:05:09.807Z,11.60
2019-01-08T10:06:09.783Z,11.30
2019-01-08T10:07:09.765Z,12.80
2019-01-08T10:08:09.738Z,10.20
2019-01-08T10:09:09.717Z,13.50
2019-01-08T10:10:09.692Z,9.80
2019-01-08T10:11:09.672Z,10.00
2019-01-08T10:12:09.692Z,13.10
2019-01-08T10:13:09.621Z,7.40
2019-01-08T10:14:09.597Z,9.00
2019-01-08T10:15:09.585Z,14.20
2019-01-08T10:16:09.554Z,14.00
2019-01-08T10:17:09.534Z,9.90
2019-01-08T10:18:09.507Z,12.50
2019-01-08T10:19:09.487Z,9.90
2019-01-08T10:20:09.463Z,14.70
2019-01-08T10:21:09.446Z,9.60
2019-01-08T10:22:09.415Z,9.60
2019-01-08T10:23:10.172Z,10.60
2019-01-08T10:24:09.377Z,6.70
2019-01-08T10:25:09.344Z,6.30
2019-01-08T10:26:09.326Z,10.80
2019-01-08T10:27:09.302Z,14.90
2019-01-08T10:28:09.281Z,7.00
2019-01-08T10:29:09.258Z,9.60
2019-01-08T10:30:09.234Z,9.00
2019-01-08T10:31:09.209Z,8.50
2019-01-08T10:32:09.187Z,10.80
2019-01-08T10:33:09.172Z,9.50
2019-01-08T10:34:09.142Z,11.20
2019-01-08T10:35:09.118Z,8.30
2019-01-08T10:36:09.096Z,10.60
2019-01-08T10:37:09.076Z,10.40
2019-01-08T10:38:09.052Z,10.50
2019-01-08T10:39:09.030Z,12.30
2019-01-08T10:40:09.002Z,10.70
2019-01-08T10:41:08.980Z,8.90
2019-01-08T10:42:08.962Z,9.60
2019-01-08T10:43:08.936Z,12.60
2019-01-08T10:44:08.912Z,10.30
2019-01-08T10:45:08.890Z,9.20
2019-01-08T10:46:08.872Z,10.30
2019-01-08T10:47:08.849Z,9.20
2019-01-08T10:48:08.824Z,9.00
2019-01-08T10:49:08.803Z,8.80
2019-01-08T10:50:08.778Z,12.70
2019-01-08T10:51:08.762Z,8.70
2019-01-08T10:52:08.733Z,9.10
2019-01-08T10:53:08.710Z,11.20
2019-01-08T10:54:08.688Z,10.30
2019-01-08T10:55:08.663Z,9.70
2019-01-08T10:56:08.640Z,9.30
2019-01-08T10:57:08.622Z,9.00
2019-01-08T10:58:08.598Z,11.00
2019-01-08T10:59:08.572Z,11.20
2019-01-08T11:00:08.557Z,11.00
2019-01-08T11:01:08.526Z,9.40
2019-01-08T11:02:08.512Z,6.70
2019-01-08T11:03:08.484Z,9.60
2019-01-08T11:04:08.460Z,7.80
2019-01-08T11:05:08.438Z,8.80
2019-01-08T11:06:08.414Z,9.10
2019-01-08T11:07:08.393Z,8.50
2019-01-08T11:08:08.367Z,9.00
2019-01-08T11:09:08.346Z,10.20
2019-01-08T11:10:08.330Z,8.90
2019-01-08T11:11:08.299Z,9.80
2019-01-08T11:12:08.280Z,9.10
2019-01-08T11:13:08.281Z,9.40
2019-01-08T11:14:08.227Z,10.40
2019-01-08T11:15:08.211Z,8.80
2019-01-08T11:16:08.189Z,8.20
2019-01-08T11:17:08.164Z,11.40
2019-01-08T11:18:08.143Z,9.50
2019-01-08T11:19:08.120Z,9.70
2019-01-08T11:20:08.098Z,9.10
2019-01-08T11:21:08.079Z,10.60
2019-01-08T11:22:08.055Z,8.60
2019-01-08T11:23:08.025Z,9.10
2019-01-08T11:24:08.005Z,12.00
2019-01-08T11:25:07.977Z,8.80
2019-01-08T11:26:07.969Z,9.10
2019-01-08T11:27:07.937Z,9.50
2019-01-08T11:28:07.913Z,10.20
2019-01-08T11:29:07.893Z,10.40
2019-01-08T11:30:07.872Z,10.90
2019-01-08T11:31:07.844Z,12.70
2019-01-08T11:32:07.821Z,14.60
2019-01-08T11:33:07.799Z,12.30
2019-01-08T11:34:07.775Z,11.40
2019-01-08T11:35:07.755Z,7.60
2019-01-08T11:36:07.731Z,8.90
2019-01-08T11:37:07.710Z,7.20
2019-01-08T11:38:07.685Z,11.10
2019-01-08T11:39:07.664Z,8.50
2019-01-08T11:40:07.640Z,9.60
2019-01-08T11:41:07.617Z,9.10
2019-01-08T11:42:07.597Z,9.70
2019-01-08T11:43:07.571Z,9.30
2019-01-08T11:44:07.561Z,6.20
2019-01-08T11:45:07.527Z,10.50
2019-01-08T11:46:07.504Z,8.20
2019-01-08T11:47:07.481Z,10.30
2019-01-08T11:48:07.461Z,5.20
2019-01-08T11:49:07.437Z,6.70
2019-01-08T11:50:07.410Z,11.40
2019-01-08T11:51:07.389Z,7.60
2019-01-08T11:52:07.367Z,9.80
2019-01-08T11:53:07.343Z,7.70
2019-01-08T11:54:07.327Z,8.70
2019-01-08T11:55:07.297Z,8.30
2019-01-08T11:56:07.277Z,8.50
2019-01-08T11:57:07.256Z,10.40
2019-01-08T11:58:07.231Z,7.50
2019-01-08T11:59:07.211Z,10.00
2019-01-08T12:00:07.186Z,9.40
2019-01-08T12:01:07.163Z,8.40
2019-01-08T12:02:07.141Z,8.50
2019-01-08T12:03:07.116Z,8.10
2019-01-08T12:04:07.093Z,11.40
2019-01-08T12:05:07.131Z,7.80
2019-01-08T12:06:07.052Z,10.60
2019-01-08T12:07:07.027Z,10.60
2019-01-08T12:08:07.005Z,9.40
2019-01-08T12:09:06.982Z,11.20
2019-01-08T12:10:06.963Z,9.20
2019-01-08T12:11:06.939Z,9.10
2019-01-08T12:12:06.999Z,9.50
2019-01-08T12:13:06.892Z,8.20
2019-01-08T12:14:06.867Z,8.30
2019-01-08T12:15:06.850Z,4.90
2019-01-08T12:16:06.823Z,6.10
2019-01-08T12:17:06.802Z,7.60
2019-01-08T12:18:06.780Z,7.50
2019-01-08T12:19:06.756Z,5.90
2019-01-08T12:20:06.731Z,7.40
2019-01-08T12:21:06.710Z,6.50
2019-01-08T12:22:06.687Z,7.90
2019-01-08T12:23:06.666Z,6.20
2019-01-08T12:24:06.639Z,6.80
2019-01-08T12:25:06.623Z,4.80
2019-01-08T12:26:06.598Z,6.70
2019-01-08T12:27:06.575Z,5.40
2019-01-08T12:28:06.550Z,6.10
2019-01-08T12:29:06.534Z,8.10
2019-01-08T12:30:06.521Z,6.30
2019-01-08T12:31:06.483Z,7.20
2019-01-08T12:32:06.625Z,6.80
2019-01-08T12:33:06.440Z,5.50
2019-01-08T12:34:06.417Z,6.10
2019-01-08T12:35:06.397Z,6.60
2019-01-08T12:36:06.370Z,7.50
2019-01-08T12:37:06.392Z,11.30
2019-01-08T12:38:06.333Z,8.00
2019-01-08T12:39:06.300Z,6.90
2019-01-08T12:40:06.281Z,4.60
2019-01-08T12:41:06.257Z,5.10
2019-01-08T12:42:06.237Z,5.90
2019-01-08T12:43:06.213Z,6.70
2019-01-08T12:44:06.201Z,4.30
2019-01-08T12:45:06.174Z,8.30
2019-01-08T12:46:06.144Z,7.20
2019-01-08T12:47:06.128Z,5.40
2019-01-08T12:48:06.104Z,6.20
2019-01-08T12:49:06.076Z,6.60
2019-01-08T12:50:06.059Z,7.50
2019-01-08T12:51:06.034Z,7.00
2019-01-08T12:52:06.015Z,6.10
2019-01-08T12:53:05.990Z,8.30
2019-01-08T12:54:05.963Z,4.10
2019-01-08T12:55:05.948Z,5.80
2019-01-08T12:56:05.922Z,5.10